sensor_id;sensor_type;location;lat;lon;timestamp;temperature;humidity
46356;DHT22;32066;49.474;11.106;2023-04-24T00:02:29;17.40;93.00
46356;DHT22;32066;49.474;11.106;2023-04-24T00:04:58;17.30;93.20
46356;DHT22;32066;49.474;11.106;2023-04-24T00:07:28;17.20;93.20
46356;DHT22;32066;49.474;11.106;2023-04-24T00:09:57;17.20;93.30
46356;DHT22;32066;49.474;11.106;2023-04-24T00:12:26;17.20;93.30
46356;DHT22;32066;49.474;11.106;2023-04-24T00:14:55;17.20;93.20
46356;DHT22;32066;49.474;11.106;2023-04-24T00:17:24;17.30;93.20
46356;DHT22;32066;49.474;11.106;2023-04-24T00:19:55;17.20;93.30
46356;DHT22;32066;49.474;11.106;2023-04-24T00:22:24;17.20;93.30
46356;DHT22;32066;49.474;11.106;2023-04-24T00:24:53;17.20;93.20
46356;DHT22;32066;49.474;11.106;2023-04-24T00:27:22;17.20;93.10
46356;DHT22;32066;49.474;11.106;2023-04-24T00:29:51;17.30;93.10
46356;DHT22;32066;49.474;11.106;2023-04-24T00:32:19;17.30;93.10
46356;DHT22;32066;49.474;11.106;2023-04-24T00:34:48;17.20;93.30
46356;DHT22;32066;49.474;11.106;2023-04-24T00:37:19;17.20;93.20
46356;DHT22;32066;49.474;11.106;2023-04-24T00:39:48;17.10;93.20
46356;DHT22;32066;49.474;11.106;2023-04-24T00:42:17;17.20;93.20
46356;DHT22;32066;49.474;11.106;2023-04-24T00:44:46;17.20;93.10
46356;DHT22;32066;49.474;11.106;2023-04-24T00:47:15;17.10;93.10
46356;DHT22;32066;49.474;11.106;2023-04-24T00:49:44;17.20;93.20
46356;DHT22;32066;49.474;11.106;2023-04-24T00:52:12;17.10;93.20
46356;DHT22;32066;49.474;11.106;2023-04-24T00:54:46;17.10;93.20
46356;DHT22;32066;49.474;11.106;2023-04-24T00:57:15;17.10;93.10
46356;DHT22;32066;49.474;11.106;2023-04-24T00:59:44;17.20;93.10
46356;DHT22;32066;49.474;11.106;2023-04-24T01:02:13;17.20;93.00
46356;DHT22;32066;49.474;11.106;2023-04-24T01:04:42;17.20;93.00
46356;DHT22;32066;49.474;11.106;2023-04-24T01:07:12;17.20;93.00
46356;DHT22;32066;49.474;11.106;2023-04-24T01:09:41;17.10;92.90
46356;DHT22;32066;49.474;11.106;2023-04-24T01:12:12;17.10;93.00
46356;DHT22;32066;49.474;11.106;2023-04-24T01:14:41;17.00;93.10
46356;DHT22;32066;49.474;11.106;2023-04-24T01:17:09;17.10;93.00
46356;DHT22;32066;49.474;11.106;2023-04-24T01:19:38;17.10;93.00
46356;DHT22;32066;49.474;11.106;2023-04-24T01:22:13;17.10;93.00
46356;DHT22;32066;49.474;11.106;2023-04-24T01:24:42;17.10;93.00
46356;DHT22;32066;49.474;11.106;2023-04-24T01:27:12;17.20;93.00
46356;DHT22;32066;49.474;11.106;2023-04-24T01:29:41;17.20;92.80
46356;DHT22;32066;49.474;11.106;2023-04-24T01:32:09;17.20;92.90
46356;DHT22;32066;49.474;11.106;2023-04-24T01:34:40;17.10;92.90
46356;DHT22;32066;49.474;11.106;2023-04-24T01:37:09;17.10;92.80
46356;DHT22;32066;49.474;11.106;2023-04-24T01:39:40;17.10;92.90
46356;DHT22;32066;49.474;11.106;2023-04-24T01:42:09;17.00;93.00
46356;DHT22;32066;49.474;11.106;2023-04-24T01:44:39;16.90;93.10
46356;DHT22;32066;49.474;11.106;2023-04-24T01:47:08;16.90;93.00
46356;DHT22;32066;49.474;11.106;2023-04-24T01:49:37;16.90;93.10
46356;DHT22;32066;49.474;11.106;2023-04-24T01:52:06;16.80;93.10
46356;DHT22;32066;49.474;11.106;2023-04-24T01:57:07;16.70;92.90
46356;DHT22;32066;49.474;11.106;2023-04-24T01:59:35;16.70;93.20
46356;DHT22;32066;49.474;11.106;2023-04-24T02:02:04;16.60;93.20
46356;DHT22;32066;49.474;11.106;2023-04-24T02:04:34;16.60;93.20
46356;DHT22;32066;49.474;11.106;2023-04-24T02:07:03;16.50;93.20
46356;DHT22;32066;49.474;11.106;2023-04-24T02:09:32;16.50;93.20
46356;DHT22;32066;49.474;11.106;2023-04-24T02:12:00;16.50;93.00
46356;DHT22;32066;49.474;11.106;2023-04-24T02:14:32;16.50;93.10
46356;DHT22;32066;49.474;11.106;2023-04-24T02:17:00;16.50;93.10
46356;DHT22;32066;49.474;11.106;2023-04-24T02:19:29;16.40;93.00
46356;DHT22;32066;49.474;11.106;2023-04-24T02:21:58;16.50;93.10
46356;DHT22;32066;49.474;11.106;2023-04-24T02:24:29;16.50;93.00
46356;DHT22;32066;49.474;11.106;2023-04-24T02:26:57;16.50;93.10
46356;DHT22;32066;49.474;11.106;2023-04-24T02:29:31;16.40;93.00
46356;DHT22;32066;49.474;11.106;2023-04-24T02:31:59;16.40;92.90
46356;DHT22;32066;49.474;11.106;2023-04-24T02:34:28;16.40;92.70
46356;DHT22;32066;49.474;11.106;2023-04-24T02:36:59;16.50;92.80
46356;DHT22;32066;49.474;11.106;2023-04-24T02:39:27;16.50;92.70
46356;DHT22;32066;49.474;11.106;2023-04-24T02:41:56;16.40;92.70
46356;DHT22;32066;49.474;11.106;2023-04-24T02:44:25;16.50;92.80
46356;DHT22;32066;49.474;11.106;2023-04-24T02:46:57;16.40;92.80
46356;DHT22;32066;49.474;11.106;2023-04-24T02:49:25;16.50;92.90
46356;DHT22;32066;49.474;11.106;2023-04-24T02:51:54;16.40;92.70
46356;DHT22;32066;49.474;11.106;2023-04-24T02:54:22;16.40;92.70
46356;DHT22;32066;49.474;11.106;2023-04-24T02:56:51;16.50;92.50
46356;DHT22;32066;49.474;11.106;2023-04-24T02:59:20;16.50;92.50
46356;DHT22;32066;49.474;11.106;2023-04-24T03:01:49;16.50;92.50
46356;DHT22;32066;49.474;11.106;2023-04-24T03:04:20;16.50;92.70
46356;DHT22;32066;49.474;11.106;2023-04-24T03:06:49;16.60;92.40
46356;DHT22;32066;49.474;11.106;2023-04-24T03:09:20;16.60;92.50
46356;DHT22;32066;49.474;11.106;2023-04-24T03:11:49;16.50;92.40
46356;DHT22;32066;49.474;11.106;2023-04-24T03:14:18;16.60;92.50
46356;DHT22;32066;49.474;11.106;2023-04-24T03:16:46;16.50;92.50
46356;DHT22;32066;49.474;11.106;2023-04-24T03:19:15;16.60;92.40
46356;DHT22;32066;49.474;11.106;2023-04-24T03:21:58;16.70;92.30
46356;DHT22;32066;49.474;11.106;2023-04-24T03:24:26;16.70;92.40
46356;DHT22;32066;49.474;11.106;2023-04-24T03:26:56;16.70;92.10
46356;DHT22;32066;49.474;11.106;2023-04-24T03:29:45;16.70;92.10
46356;DHT22;32066;49.474;11.106;2023-04-24T03:32:15;16.70;92.20
46356;DHT22;32066;49.474;11.106;2023-04-24T03:34:45;16.80;92.30
46356;DHT22;32066;49.474;11.106;2023-04-24T03:37:17;16.70;92.30
46356;DHT22;32066;49.474;11.106;2023-04-24T03:39:55;16.70;92.50
46356;DHT22;32066;49.474;11.106;2023-04-24T03:42:25;16.80;92.40
46356;DHT22;32066;49.474;11.106;2023-04-24T03:44:55;16.70;92.30
46356;DHT22;32066;49.474;11.106;2023-04-24T03:47:29;16.60;92.60
46356;DHT22;32066;49.474;11.106;2023-04-24T03:50:03;16.60;92.60
46356;DHT22;32066;49.474;11.106;2023-04-24T03:52:36;16.60;92.50
46356;DHT22;32066;49.474;11.106;2023-04-24T03:55:06;16.60;92.40
46356;DHT22;32066;49.474;11.106;2023-04-24T03:57:40;16.70;92.40
46356;DHT22;32066;49.474;11.106;2023-04-24T04:00:17;16.70;92.30
46356;DHT22;32066;49.474;11.106;2023-04-24T04:02:52;16.50;92.50
46356;DHT22;32066;49.474;11.106;2023-04-24T04:05:21;16.50;92.40
46356;DHT22;32066;49.474;11.106;2023-04-24T04:07:52;16.40;92.40
46356;DHT22;32066;49.474;11.106;2023-04-24T04:10:21;16.40;92.50
46356;DHT22;32066;49.474;11.106;2023-04-24T04:12:50;16.30;92.50
46356;DHT22;32066;49.474;11.106;2023-04-24T04:15:18;16.20;92.70
46356;DHT22;32066;49.474;11.106;2023-04-24T04:20:18;16.20;92.50
46356;DHT22;32066;49.474;11.106;2023-04-24T04:22:47;16.30;92.60
46356;DHT22;32066;49.474;11.106;2023-04-24T04:25:25;16.20;92.80
46356;DHT22;32066;49.474;11.106;2023-04-24T04:27:55;16.20;92.70
46356;DHT22;32066;49.474;11.106;2023-04-24T04:30:25;16.20;92.70
46356;DHT22;32066;49.474;11.106;2023-04-24T04:32:58;16.20;92.80
46356;DHT22;32066;49.474;11.106;2023-04-24T04:35:28;16.10;92.70
46356;DHT22;32066;49.474;11.106;2023-04-24T04:37:57;16.10;92.80
46356;DHT22;32066;49.474;11.106;2023-04-24T04:40:46;16.10;92.70
46356;DHT22;32066;49.474;11.106;2023-04-24T04:43:16;16.10;92.70
46356;DHT22;32066;49.474;11.106;2023-04-24T04:45:50;16.10;92.80
46356;DHT22;32066;49.474;11.106;2023-04-24T04:48:43;16.00;92.80
46356;DHT22;32066;49.474;11.106;2023-04-24T04:51:11;16.10;92.70
46356;DHT22;32066;49.474;11.106;2023-04-24T04:53:41;16.10;92.70
46356;DHT22;32066;49.474;11.106;2023-04-24T04:56:12;16.20;92.60
46356;DHT22;32066;49.474;11.106;2023-04-24T04:58:44;16.10;92.60
46356;DHT22;32066;49.474;11.106;2023-04-24T05:01:15;16.10;92.70
46356;DHT22;32066;49.474;11.106;2023-04-24T05:03:46;16.10;92.80
46356;DHT22;32066;49.474;11.106;2023-04-24T05:06:16;16.20;92.60
46356;DHT22;32066;49.474;11.106;2023-04-24T05:08:46;16.20;92.40
46356;DHT22;32066;49.474;11.106;2023-04-24T05:11:27;16.10;92.60
46356;DHT22;32066;49.474;11.106;2023-04-24T05:13:57;16.10;92.90
46356;DHT22;32066;49.474;11.106;2023-04-24T05:16:34;16.20;92.70
46356;DHT22;32066;49.474;11.106;2023-04-24T05:19:04;16.20;92.80
46356;DHT22;32066;49.474;11.106;2023-04-24T05:21:40;16.30;92.70
46356;DHT22;32066;49.474;11.106;2023-04-24T05:24:09;16.40;92.40
46356;DHT22;32066;49.474;11.106;2023-04-24T05:26:53;16.30;92.50
46356;DHT22;32066;49.474;11.106;2023-04-24T05:29:27;16.30;92.60
46356;DHT22;32066;49.474;11.106;2023-04-24T05:31:57;16.20;92.80
46356;DHT22;32066;49.474;11.106;2023-04-24T05:34:27;16.30;92.70
46356;DHT22;32066;49.474;11.106;2023-04-24T05:36:57;16.40;92.70
46356;DHT22;32066;49.474;11.106;2023-04-24T05:39:25;16.40;92.60
46356;DHT22;32066;49.474;11.106;2023-04-24T05:41:57;16.40;92.50
46356;DHT22;32066;49.474;11.106;2023-04-24T05:44:27;16.40;92.50
46356;DHT22;32066;49.474;11.106;2023-04-24T05:46:55;16.40;92.50
46356;DHT22;32066;49.474;11.106;2023-04-24T05:49:24;16.50;92.40
46356;DHT22;32066;49.474;11.106;2023-04-24T05:51:53;16.50;92.50
46356;DHT22;32066;49.474;11.106;2023-04-24T05:54:22;16.60;92.30
46356;DHT22;32066;49.474;11.106;2023-04-24T05:56:51;16.60;92.30
46356;DHT22;32066;49.474;11.106;2023-04-24T05:59:33;16.60;92.20
46356;DHT22;32066;49.474;11.106;2023-04-24T06:02:02;16.60;92.40
46356;DHT22;32066;49.474;11.106;2023-04-24T06:04:31;16.60;92.40
46356;DHT22;32066;49.474;11.106;2023-04-24T06:07:01;16.60;92.50
46356;DHT22;32066;49.474;11.106;2023-04-24T06:09:29;16.60;92.40
46356;DHT22;32066;49.474;11.106;2023-04-24T06:11:59;16.60;92.50
46356;DHT22;32066;49.474;11.106;2023-04-24T06:14:42;16.60;92.50
46356;DHT22;32066;49.474;11.106;2023-04-24T06:17:25;16.60;92.40
46356;DHT22;32066;49.474;11.106;2023-04-24T06:19:54;16.70;92.50
46356;DHT22;32066;49.474;11.106;2023-04-24T06:22:24;16.60;92.50
46356;DHT22;32066;49.474;11.106;2023-04-24T06:24:53;16.60;92.70
46356;DHT22;32066;49.474;11.106;2023-04-24T06:27:21;16.60;92.50
46356;DHT22;32066;49.474;11.106;2023-04-24T06:29:53;16.50;92.80
46356;DHT22;32066;49.474;11.106;2023-04-24T06:32:23;16.60;92.60
46356;DHT22;32066;49.474;11.106;2023-04-24T06:34:52;16.50;92.80
46356;DHT22;32066;49.474;11.106;2023-04-24T06:37:21;16.40;93.00
46356;DHT22;32066;49.474;11.106;2023-04-24T06:39:50;16.40;93.00
46356;DHT22;32066;49.474;11.106;2023-04-24T06:42:18;16.40;92.80
46356;DHT22;32066;49.474;11.106;2023-04-24T06:44:52;16.50;92.70
46356;DHT22;32066;49.474;11.106;2023-04-24T06:47:20;16.30;92.70
46356;DHT22;32066;49.474;11.106;2023-04-24T06:49:49;16.30;92.90
46356;DHT22;32066;49.474;11.106;2023-04-24T06:52:19;16.30;93.00
46356;DHT22;32066;49.474;11.106;2023-04-24T06:54:51;16.30;93.10
46356;DHT22;32066;49.474;11.106;2023-04-24T06:57:20;16.30;93.10
46356;DHT22;32066;49.474;11.106;2023-04-24T06:59:48;16.30;92.90
46356;DHT22;32066;49.474;11.106;2023-04-24T07:02:20;16.40;93.00
46356;DHT22;32066;49.474;11.106;2023-04-24T07:04:48;16.30;92.80
46356;DHT22;32066;49.474;11.106;2023-04-24T07:07:18;16.40;92.70
46356;DHT22;32066;49.474;11.106;2023-04-24T07:09:47;16.40;92.60
46356;DHT22;32066;49.474;11.106;2023-04-24T07:12:16;16.70;93.80
46356;DHT22;32066;49.474;11.106;2023-04-24T07:14:46;16.90;92.70
46356;DHT22;32066;49.474;11.106;2023-04-24T07:17:15;16.90;92.40
46356;DHT22;32066;49.474;11.106;2023-04-24T07:19:46;17.00;92.10
46356;DHT22;32066;49.474;11.106;2023-04-24T07:22:15;16.90;92.10
46356;DHT22;32066;49.474;11.106;2023-04-24T07:24:44;17.00;91.90
46356;DHT22;32066;49.474;11.106;2023-04-24T07:27:14;17.00;91.70
46356;DHT22;32066;49.474;11.106;2023-04-24T07:29:42;17.10;91.20
46356;DHT22;32066;49.474;11.106;2023-04-24T07:32:11;17.10;90.90
46356;DHT22;32066;49.474;11.106;2023-04-24T07:34:39;17.10;90.50
46356;DHT22;32066;49.474;11.106;2023-04-24T07:37:11;17.10;90.60
46356;DHT22;32066;49.474;11.106;2023-04-24T07:39:39;17.10;90.10
46356;DHT22;32066;49.474;11.106;2023-04-24T07:42:08;17.10;90.10
46356;DHT22;32066;49.474;11.106;2023-04-24T07:44:37;17.10;90.00
46356;DHT22;32066;49.474;11.106;2023-04-24T07:47:05;17.10;89.20
46356;DHT22;32066;49.474;11.106;2023-04-24T07:49:34;17.00;88.80
46356;DHT22;32066;49.474;11.106;2023-04-24T07:52:03;17.10;88.70
46356;DHT22;32066;49.474;11.106;2023-04-24T07:54:34;17.10;88.10
46356;DHT22;32066;49.474;11.106;2023-04-24T07:57:03;17.10;87.60
46356;DHT22;32066;49.474;11.106;2023-04-24T07:59:33;17.10;87.70
46356;DHT22;32066;49.474;11.106;2023-04-24T08:02:02;17.30;87.70
46356;DHT22;32066;49.474;11.106;2023-04-24T08:04:31;17.30;86.90
46356;DHT22;32066;49.474;11.106;2023-04-24T08:07:00;17.40;87.20
46356;DHT22;32066;49.474;11.106;2023-04-24T08:09:29;17.50;87.10
46356;DHT22;32066;49.474;11.106;2023-04-24T08:12:00;17.70;87.20
46356;DHT22;32066;49.474;11.106;2023-04-24T08:14:29;17.70;86.90
46356;DHT22;32066;49.474;11.106;2023-04-24T08:16:58;17.70;86.20
46356;DHT22;32066;49.474;11.106;2023-04-24T08:19:28;17.90;86.80
46356;DHT22;32066;49.474;11.106;2023-04-24T08:21:56;17.90;86.70
46356;DHT22;32066;49.474;11.106;2023-04-24T08:24:25;17.90;86.00
46356;DHT22;32066;49.474;11.106;2023-04-24T08:26:53;17.90;85.50
46356;DHT22;32066;49.474;11.106;2023-04-24T08:29:26;18.00;85.60
46356;DHT22;32066;49.474;11.106;2023-04-24T08:31:54;17.90;84.50
46356;DHT22;32066;49.474;11.106;2023-04-24T08:34:23;17.90;84.50
46356;DHT22;32066;49.474;11.106;2023-04-24T08:36:52;17.90;85.00
46356;DHT22;32066;49.474;11.106;2023-04-24T08:39:21;17.90;84.60
46356;DHT22;32066;49.474;11.106;2023-04-24T08:41:50;17.80;84.30
46356;DHT22;32066;49.474;11.106;2023-04-24T08:44:21;17.90;84.60
46356;DHT22;32066;49.474;11.106;2023-04-24T08:46:55;17.90;84.00
46356;DHT22;32066;49.474;11.106;2023-04-24T08:49:25;18.00;84.20
46356;DHT22;32066;49.474;11.106;2023-04-24T08:51:55;18.10;84.30
46356;DHT22;32066;49.474;11.106;2023-04-24T08:54:25;18.10;84.00
46356;DHT22;32066;49.474;11.106;2023-04-24T08:56:56;18.20;84.00
46356;DHT22;32066;49.474;11.106;2023-04-24T08:59:27;18.20;83.80
46356;DHT22;32066;49.474;11.106;2023-04-24T09:01:59;18.20;83.50
46356;DHT22;32066;49.474;11.106;2023-04-24T09:04:29;18.30;84.30
46356;DHT22;32066;49.474;11.106;2023-04-24T09:06:58;18.20;83.50
46356;DHT22;32066;49.474;11.106;2023-04-24T09:09:29;18.20;84.20
46356;DHT22;32066;49.474;11.106;2023-04-24T09:11:58;18.20;83.00
46356;DHT22;32066;49.474;11.106;2023-04-24T09:14:27;18.30;83.20
46356;DHT22;32066;49.474;11.106;2023-04-24T09:17:00;18.40;82.50
46356;DHT22;32066;49.474;11.106;2023-04-24T09:19:28;18.40;81.70
46356;DHT22;32066;49.474;11.106;2023-04-24T09:21:57;18.50;81.60
46356;DHT22;32066;49.474;11.106;2023-04-24T09:24:26;18.60;81.90
46356;DHT22;32066;49.474;11.106;2023-04-24T09:26:57;18.80;81.70
46356;DHT22;32066;49.474;11.106;2023-04-24T09:29:28;19.00;82.40
46356;DHT22;32066;49.474;11.106;2023-04-24T09:32:18;19.10;81.50
46356;DHT22;32066;49.474;11.106;2023-04-24T09:34:48;19.20;80.90
46356;DHT22;32066;49.474;11.106;2023-04-24T09:37:28;19.20;80.60
46356;DHT22;32066;49.474;11.106;2023-04-24T09:40:13;19.20;80.40
46356;DHT22;32066;49.474;11.106;2023-04-24T09:42:45;19.00;80.90
46356;DHT22;32066;49.474;11.106;2023-04-24T09:45:14;19.10;81.20
46356;DHT22;32066;49.474;11.106;2023-04-24T09:47:46;19.10;80.00
46356;DHT22;32066;49.474;11.106;2023-04-24T09:50:19;19.20;79.90
46356;DHT22;32066;49.474;11.106;2023-04-24T09:52:57;19.40;80.30
46356;DHT22;32066;49.474;11.106;2023-04-24T09:55:27;19.40;79.40
46356;DHT22;32066;49.474;11.106;2023-04-24T09:57:57;19.50;78.80
46356;DHT22;32066;49.474;11.106;2023-04-24T10:00:28;19.50;78.20
46356;DHT22;32066;49.474;11.106;2023-04-24T10:03:01;19.50;79.00
46356;DHT22;32066;49.474;11.106;2023-04-24T10:05:38;19.50;77.70
46356;DHT22;32066;49.474;11.106;2023-04-24T10:08:10;19.60;76.90
46356;DHT22;32066;49.474;11.106;2023-04-24T10:10:41;19.60;76.60
46356;DHT22;32066;49.474;11.106;2023-04-24T10:13:12;19.40;76.70
46356;DHT22;32066;49.474;11.106;2023-04-24T10:15:41;19.40;74.60
46356;DHT22;32066;49.474;11.106;2023-04-24T10:18:13;19.40;75.50
46356;DHT22;32066;49.474;11.106;2023-04-24T10:20:41;19.40;75.40
46356;DHT22;32066;49.474;11.106;2023-04-24T10:23:11;19.40;74.10
46356;DHT22;32066;49.474;11.106;2023-04-24T10:25:40;19.60;75.30
46356;DHT22;32066;49.474;11.106;2023-04-24T10:28:09;19.80;73.40
46356;DHT22;32066;49.474;11.106;2023-04-24T10:30:39;20.00;72.50
46356;DHT22;32066;49.474;11.106;2023-04-24T10:33:14;20.20;71.80
46356;DHT22;32066;49.474;11.106;2023-04-24T10:35:45;20.30;69.70
46356;DHT22;32066;49.474;11.106;2023-04-24T10:38:16;20.50;69.00
46356;DHT22;32066;49.474;11.106;2023-04-24T10:40:46;20.60;67.30
46356;DHT22;32066;49.474;11.106;2023-04-24T10:43:17;20.60;67.00
46356;DHT22;32066;49.474;11.106;2023-04-24T10:46:00;20.60;68.00
46356;DHT22;32066;49.474;11.106;2023-04-24T10:48:32;20.50;68.30
46356;DHT22;32066;49.474;11.106;2023-04-24T10:51:02;20.40;69.60
46356;DHT22;32066;49.474;11.106;2023-04-24T10:53:31;20.40;69.90
46356;DHT22;32066;49.474;11.106;2023-04-24T10:56:04;20.30;71.70
46356;DHT22;32066;49.474;11.106;2023-04-24T10:58:39;20.20;74.00
46356;DHT22;32066;49.474;11.106;2023-04-24T11:01:23;20.00;73.50
46356;DHT22;32066;49.474;11.106;2023-04-24T11:03:58;19.80;73.40
46356;DHT22;32066;49.474;11.106;2023-04-24T11:06:30;19.70;74.50
46356;DHT22;32066;49.474;11.106;2023-04-24T11:09:05;19.60;73.50
46356;DHT22;32066;49.474;11.106;2023-04-24T11:11:36;19.50;72.70
46356;DHT22;32066;49.474;11.106;2023-04-24T11:14:07;19.40;72.30
46356;DHT22;32066;49.474;11.106;2023-04-24T11:16:39;19.40;73.70
46356;DHT22;32066;49.474;11.106;2023-04-24T11:19:20;19.40;73.50
46356;DHT22;32066;49.474;11.106;2023-04-24T11:21:58;19.40;72.30
46356;DHT22;32066;49.474;11.106;2023-04-24T11:24:30;19.40;72.30
46356;DHT22;32066;49.474;11.106;2023-04-24T11:27:05;19.40;71.10
46356;DHT22;32066;49.474;11.106;2023-04-24T11:29:45;19.40;71.50
46356;DHT22;32066;49.474;11.106;2023-04-24T11:32:24;19.40;71.30
46356;DHT22;32066;49.474;11.106;2023-04-24T11:34:57;19.50;71.50
46356;DHT22;32066;49.474;11.106;2023-04-24T11:37:28;19.50;70.90
46356;DHT22;32066;49.474;11.106;2023-04-24T11:39:58;19.50;71.20
46356;DHT22;32066;49.474;11.106;2023-04-24T11:42:28;19.60;69.20
46356;DHT22;32066;49.474;11.106;2023-04-24T11:44:56;19.60;70.10
46356;DHT22;32066;49.474;11.106;2023-04-24T11:47:29;19.70;71.60
46356;DHT22;32066;49.474;11.106;2023-04-24T11:50:03;19.60;71.80
46356;DHT22;32066;49.474;11.106;2023-04-24T11:52:33;19.60;72.20
46356;DHT22;32066;49.474;11.106;2023-04-24T11:55:02;19.60;71.60
46356;DHT22;32066;49.474;11.106;2023-04-24T11:57:31;19.40;68.80
46356;DHT22;32066;49.474;11.106;2023-04-24T12:00:03;19.30;70.80
46356;DHT22;32066;49.474;11.106;2023-04-24T12:02:38;19.10;70.10
46356;DHT22;32066;49.474;11.106;2023-04-24T12:05:09;19.10;69.40
46356;DHT22;32066;49.474;11.106;2023-04-24T12:07:47;19.00;69.60
46356;DHT22;32066;49.474;11.106;2023-04-24T12:10:20;19.00;69.10
46356;DHT22;32066;49.474;11.106;2023-04-24T12:12:50;19.10;68.50
46356;DHT22;32066;49.474;11.106;2023-04-24T12:15:19;19.10;68.80
46356;DHT22;32066;49.474;11.106;2023-04-24T12:17:51;19.20;68.50
46356;DHT22;32066;49.474;11.106;2023-04-24T12:20:27;19.20;68.00
46356;DHT22;32066;49.474;11.106;2023-04-24T12:22:58;19.30;69.30
46356;DHT22;32066;49.474;11.106;2023-04-24T12:25:28;19.40;69.00
46356;DHT22;32066;49.474;11.106;2023-04-24T12:28:10;19.40;67.70
46356;DHT22;32066;49.474;11.106;2023-04-24T12:30:41;19.40;68.40
46356;DHT22;32066;49.474;11.106;2023-04-24T12:33:10;19.50;68.10
46356;DHT22;32066;49.474;11.106;2023-04-24T12:35:41;19.60;68.40
46356;DHT22;32066;49.474;11.106;2023-04-24T12:38:11;19.60;69.60
46356;DHT22;32066;49.474;11.106;2023-04-24T12:40:41;19.70;68.20
46356;DHT22;32066;49.474;11.106;2023-04-24T12:43:13;19.80;68.60
46356;DHT22;32066;49.474;11.106;2023-04-24T12:45:43;19.80;68.00
46356;DHT22;32066;49.474;11.106;2023-04-24T12:48:12;19.90;69.30
46356;DHT22;32066;49.474;11.106;2023-04-24T12:50:44;19.90;69.10
46356;DHT22;32066;49.474;11.106;2023-04-24T12:53:13;19.90;68.10
46356;DHT22;32066;49.474;11.106;2023-04-24T12:55:41;19.90;68.50
46356;DHT22;32066;49.474;11.106;2023-04-24T12:58:10;19.90;68.80
46356;DHT22;32066;49.474;11.106;2023-04-24T13:00:39;19.90;68.40
46356;DHT22;32066;49.474;11.106;2023-04-24T13:03:09;19.80;66.30
46356;DHT22;32066;49.474;11.106;2023-04-24T13:05:37;19.80;67.80
46356;DHT22;32066;49.474;11.106;2023-04-24T13:08:09;19.80;68.00
46356;DHT22;32066;49.474;11.106;2023-04-24T13:10:38;19.90;66.30
46356;DHT22;32066;49.474;11.106;2023-04-24T13:13:08;20.00;68.30
46356;DHT22;32066;49.474;11.106;2023-04-24T13:15:36;20.10;68.40
46356;DHT22;32066;49.474;11.106;2023-04-24T13:18:05;20.10;67.10
46356;DHT22;32066;49.474;11.106;2023-04-24T13:20:34;20.20;66.90
46356;DHT22;32066;49.474;11.106;2023-04-24T13:23:03;20.30;67.90
46356;DHT22;32066;49.474;11.106;2023-04-24T13:25:35;20.10;66.30
46356;DHT22;32066;49.474;11.106;2023-04-24T13:28:04;19.90;67.00
46356;DHT22;32066;49.474;11.106;2023-04-24T13:30:33;19.80;66.10
46356;DHT22;32066;49.474;11.106;2023-04-24T13:33:02;19.70;65.80
46356;DHT22;32066;49.474;11.106;2023-04-24T13:35:31;19.50;66.60
46356;DHT22;32066;49.474;11.106;2023-04-24T13:37:59;19.50;66.50
46356;DHT22;32066;49.474;11.106;2023-04-24T13:40:34;19.30;67.30
46356;DHT22;32066;49.474;11.106;2023-04-24T13:43:03;19.30;67.10
46356;DHT22;32066;49.474;11.106;2023-04-24T13:45:31;19.20;66.10
46356;DHT22;32066;49.474;11.106;2023-04-24T13:48:00;19.20;66.20
46356;DHT22;32066;49.474;11.106;2023-04-24T13:50:29;19.20;65.40
46356;DHT22;32066;49.474;11.106;2023-04-24T13:52:57;19.20;67.30
46356;DHT22;32066;49.474;11.106;2023-04-24T13:55:27;19.10;65.60
46356;DHT22;32066;49.474;11.106;2023-04-24T13:57:58;19.10;66.00
46356;DHT22;32066;49.474;11.106;2023-04-24T14:00:27;19.20;66.50
46356;DHT22;32066;49.474;11.106;2023-04-24T14:02:56;19.10;65.70
46356;DHT22;32066;49.474;11.106;2023-04-24T14:05:25;19.00;65.30
46356;DHT22;32066;49.474;11.106;2023-04-24T14:07:55;19.10;65.90
46356;DHT22;32066;49.474;11.106;2023-04-24T14:10:23;19.10;65.70
46356;DHT22;32066;49.474;11.106;2023-04-24T14:12:52;19.20;65.10
46356;DHT22;32066;49.474;11.106;2023-04-24T14:15:24;19.30;65.90
46356;DHT22;32066;49.474;11.106;2023-04-24T14:17:52;19.40;65.50
46356;DHT22;32066;49.474;11.106;2023-04-24T14:20:21;19.70;65.40
46356;DHT22;32066;49.474;11.106;2023-04-24T14:22:50;19.90;65.40
46356;DHT22;32066;49.474;11.106;2023-04-24T14:25:19;20.00;65.30
46356;DHT22;32066;49.474;11.106;2023-04-24T14:27:48;20.00;65.80
46356;DHT22;32066;49.474;11.106;2023-04-24T14:30:17;20.10;65.50
46356;DHT22;32066;49.474;11.106;2023-04-24T14:32:48;20.10;64.50
46356;DHT22;32066;49.474;11.106;2023-04-24T14:35:17;20.10;64.60
46356;DHT22;32066;49.474;11.106;2023-04-24T14:37:46;20.20;65.00
46356;DHT22;32066;49.474;11.106;2023-04-24T14:40:14;20.20;65.00
46356;DHT22;32066;49.474;11.106;2023-04-24T14:42:43;20.20;66.30
46356;DHT22;32066;49.474;11.106;2023-04-24T14:45:13;20.10;65.40
46356;DHT22;32066;49.474;11.106;2023-04-24T14:47:41;20.00;65.90
46356;DHT22;32066;49.474;11.106;2023-04-24T14:50:13;19.90;66.10
46356;DHT22;32066;49.474;11.106;2023-04-24T14:52:41;19.80;67.70
46356;DHT22;32066;49.474;11.106;2023-04-24T14:55:10;20.00;66.40
46356;DHT22;32066;49.474;11.106;2023-04-24T14:57:39;20.20;66.40
46356;DHT22;32066;49.474;11.106;2023-04-24T15:00:09;18.60;62.30
46356;DHT22;32066;49.474;11.106;2023-04-24T15:02:38;18.30;63.50
46356;DHT22;32066;49.474;11.106;2023-04-24T15:05:12;18.30;64.20
46356;DHT22;32066;49.474;11.106;2023-04-24T15:07:41;17.80;64.30
46356;DHT22;32066;49.474;11.106;2023-04-24T15:10:11;17.70;63.00
46356;DHT22;32066;49.474;11.106;2023-04-24T15:12:39;17.20;64.00
46356;DHT22;32066;49.474;11.106;2023-04-24T15:17:37;16.80;63.30
46356;DHT22;32066;49.474;11.106;2023-04-24T15:20:08;16.50;65.10
46356;DHT22;32066;49.474;11.106;2023-04-24T15:22:39;16.90;65.50
46356;DHT22;32066;49.474;11.106;2023-04-24T15:25:08;17.30;65.20
46356;DHT22;32066;49.474;11.106;2023-04-24T15:27:43;17.70;65.10
46356;DHT22;32066;49.474;11.106;2023-04-24T15:30:13;17.80;63.50
46356;DHT22;32066;49.474;11.106;2023-04-24T15:32:42;17.70;64.00
46356;DHT22;32066;49.474;11.106;2023-04-24T15:35:10;17.50;64.10
46356;DHT22;32066;49.474;11.106;2023-04-24T15:37:42;17.40;64.80
46356;DHT22;32066;49.474;11.106;2023-04-24T15:40:11;17.70;64.60
46356;DHT22;32066;49.474;11.106;2023-04-24T15:42:41;17.80;64.10
46356;DHT22;32066;49.474;11.106;2023-04-24T15:45:11;17.80;64.40